Time;durP1;ratioP1;P1;durP2;ratioP2;P2;SDS_P1;SDS_P2;PMS_P1;PMS_P2;Temp;Humidity;BMP_temperature;BMP_pressure;BME280_temperature;BME280_humidity;BME280_pressure;Samples;Min_cycle;Max_cycle;Signal;HPM_P1;HPM_P2
2023/04/01 00:01:04;;;;;;;28.45;19.20;;;;;;;10.14;57.94;98582.25;5113943;28;20481;-83
2023/04/01 00:03:30;;;;;;;25.70;17.02;;;;;;;9.94;58.02;98584.84;5095168;28;20019;-84
2023/04/01 00:05:57;;;;;;;30.05;18.73;;;;;;;9.68;59.38;98583.28;5095547;28;20024;-83
2023/04/01 00:08:24;;;;;;;24.70;17.35;;;;;;;9.60;59.81;98577.81;5095372;28;20024;-84
2023/04/01 00:10:51;;;;;;;27.08;17.45;;;;;;;9.71;60.08;98587.31;5095479;28;20028;-83
2023/04/01 00:13:16;;;;;;;31.58;17.60;;;;;;;9.92;59.66;98581.59;5112011;28;20098;-83
2023/04/01 00:15:43;;;;;;;32.88;18.48;;;;;;;10.00;59.48;98587.41;5093676;28;20585;-83
2023/04/01 00:18:09;;;;;;;38.28;20.52;;;;;;;9.76;60.32;98589.91;5095843;28;20035;-84
2023/04/01 00:20:34;;;;;;;28.13;17.75;;;;;;;9.78;60.08;98589.56;5095060;28;20023;-84
2023/04/01 00:23:00;;;;;;;26.83;17.80;;;;;;;9.58;60.71;98588.50;5094797;28;20023;-83
2023/04/01 00:25:26;;;;;;;32.95;18.45;;;;;;;9.58;60.56;98577.34;5094234;28;20055;-83
2023/04/01 00:27:51;;;;;;;28.30;17.00;;;;;;;9.44;61.06;98575.72;5095094;28;20490;-83
2023/04/01 00:30:17;;;;;;;30.58;16.98;;;;;;;9.45;60.50;98579.34;5113196;28;20031;-83
2023/04/01 00:32:43;;;;;;;25.92;17.15;;;;;;;9.36;61.14;98591.41;5108128;28;20075;-83
2023/04/01 00:35:10;;;;;;;33.97;16.75;;;;;;;9.32;62.09;98595.25;5094580;28;20084;-83
2023/04/01 00:37:36;;;;;;;20.38;14.90;;;;;;;9.44;61.47;98588.88;5094186;28;20119;-83
2023/04/01 00:40:06;;;;;;;21.83;14.70;;;;;;;9.53;61.47;98587.59;5095433;28;20410;-83
2023/04/01 00:42:32;;;;;;;25.23;15.73;;;;;;;9.57;61.40;98587.72;5094930;28;20062;-83
2023/04/01 00:44:57;;;;;;;23.38;14.95;;;;;;;9.66;61.65;98585.63;5094706;28;20486;-84
2023/04/01 00:47:26;;;;;;;25.98;14.70;;;;;;;9.57;61.46;98576.53;5111864;28;20030;-83
2023/04/01 00:49:54;;;;;;;27.67;13.60;;;;;;;9.72;60.89;98577.81;5094364;28;20015;-83
2023/04/01 00:52:22;;;;;;;23.17;14.60;;;;;;;9.58;61.40;98566.16;5094676;28;20490;-84
2023/04/01 00:54:52;;;;;;;18.75;14.52;;;;;;;9.76;61.13;98564.75;5093302;28;20019;-83
2023/04/01 00:57:49;;;;;;;22.90;14.38;;;;;;;9.91;60.58;98573.56;5094496;28;20020;-83
2023/04/01 01:00:15;;;;;;;29.23;13.48;;;;;;;9.86;60.69;98571.84;5082239;28;20039;-83
2023/04/01 01:02:46;;;;;;;27.90;15.70;;;;;;;9.74;61.05;98571.84;5094255;28;20023;-83
2023/04/01 01:05:15;;;;;;;23.45;17.20;;;;;;;9.55;61.91;98562.13;5105643;28;20027;-84
2023/04/01 01:07:46;;;;;;;21.65;16.00;;;;;;;9.45;62.92;98573.75;5111799;28;20509;-83
2023/04/01 01:10:23;;;;;;;24.15;13.85;;;;;;;9.35;63.06;98572.22;5094177;28;20517;-83
2023/04/01 01:13:11;;;;;;;19.15;12.57;;;;;;;9.45;62.19;98568.97;5094003;28;20066;-83
2023/04/01 01:15:36;;;;;;;18.92;13.32;;;;;;;9.41;62.61;98580.03;5092600;28;20080;-84
2023/04/01 01:18:01;;;;;;;19.20;13.13;;;;;;;9.53;62.31;98578.38;5094009;28;20444;-84
2023/04/01 01:21:20;;;;;;;18.88;14.00;;;;;;;9.62;62.11;98579.09;5101745;28;20028;-84
2023/04/01 01:24:23;;;;;;;25.58;13.43;;;;;;;9.72;62.07;98576.97;5047565;28;20500;-83
2023/04/01 01:27:12;;;;;;;18.50;13.02;;;;;;;9.62;62.25;98567.13;5047878;28;20600;-84
2023/04/01 01:29:58;;;;;;;19.60;12.47;;;;;;;9.79;61.78;98561.25;5068683;28;20032;-84
2023/04/01 01:32:55;;;;;;;23.75;12.65;;;;;;;9.82;61.59;98551.38;5073715;28;20152;-84
2023/04/01 01:35:40;;;;;;;21.67;12.88;;;;;;;9.86;61.78;98555.06;5039277;28;20036;-83
2023/04/01 01:38:11;;;;;;;23.50;14.43;;;;;;;10.01;60.69;98558.28;5092273;28;20059;-84
2023/04/01 01:40:41;;;;;;;23.98;14.15;;;;;;;9.95;60.96;98552.97;5092769;28;20524;-84
2023/04/01 01:43:11;;;;;;;18.55;11.75;;;;;;;9.92;61.59;98550.88;5093900;28;20106;-84
2023/04/01 01:45:43;;;;;;;21.70;13.63;;;;;;;10.04;61.52;98533.25;5093762;28;20557;-83
2023/04/01 01:48:10;;;;;;;24.90;14.32;;;;;;;10.04;61.13;98529.66;5093525;28;20035;-83
2023/04/01 01:50:37;;;;;;;16.50;12.85;;;;;;;10.07;60.75;98524.16;5093458;28;20024;-83
2023/04/01 01:53:09;;;;;;;20.70;13.52;;;;;;;10.22;60.24;98521.78;5106477;28;20143;-83
2023/04/01 01:55:37;;;;;;;26.02;12.88;;;;;;;10.02;60.50;98515.25;5110583;28;20035;-84
2023/04/01 01:58:13;;;;;;;26.13;14.90;;;;;;;10.10;60.50;98520.69;5102505;28;20493;-84
2023/04/01 02:00:44;;;;;;;24.33;14.98;;;;;;;9.82;61.14;98513.06;5093302;28;20030;-84
2023/04/01 02:03:11;;;;;;;20.13;13.77;;;;;;;9.86;61.93;98521.56;5093559;28;20043;-84
2023/04/01 02:05:37;;;;;;;29.05;14.88;;;;;;;9.90;61.79;98528.09;5092478;28;20520;-84
2023/04/01 02:08:14;;;;;;;29.75;17.60;;;;;;;9.94;61.08;98537.38;5109112;28;20028;-83
2023/04/01 02:10:43;;;;;;;25.83;17.95;;;;;;;9.82;61.67;98531.81;5093148;28;20032;-83
2023/04/01 02:13:35;;;;;;;28.73;18.27;;;;;;;9.80;61.91;98539.75;5092330;28;20110;-84
2023/04/01 02:16:07;;;;;;;25.35;16.75;;;;;;;9.94;61.75;98537.38;5086083;28;20036;-84
2023/04/01 02:18:36;;;;;;;27.15;16.80;;;;;;;9.92;61.99;98516.53;5110452;28;20073;-84
2023/04/01 02:21:04;;;;;;;27.25;16.88;;;;;;;10.02;61.09;98513.25;5093397;28;20387;-84
2023/04/01 02:23:33;;;;;;;29.35;17.00;;;;;;;10.11;61.40;98513.09;5092661;28;20414;-83
2023/04/01 02:26:00;;;;;;;25.35;17.27;;;;;;;10.15;61.28;98502.84;5092905;28;20460;-83
2023/04/01 02:28:29;;;;;;;31.63;18.92;;;;;;;10.10;60.77;98486.31;5093362;28;20024;-83
2023/04/01 02:30:57;;;;;;;30.35;17.42;;;;;;;9.90;61.36;98508.53;5102787;28;20050;-84
2023/04/01 02:33:24;;;;;;;26.55;16.17;;;;;;;9.82;62.97;98521.44;5110369;28;20031;-83
2023/04/01 02:35:50;;;;;;;27.08;16.45;;;;;;;9.75;63.52;98515.66;5102990;28;20173;-84
2023/04/01 02:38:15;;;;;;;27.10;17.15;;;;;;;9.59;64.38;98529.53;5095329;28;20023;-83
2023/04/01 02:40:56;;;;;;;30.90;17.15;;;;;;;9.52;63.53;98512.56;5097132;28;20051;-84
2023/04/01 02:43:21;;;;;;;24.35;16.40;;;;;;;9.22;65.64;98488.50;5096988;28;20117;-83
2023/04/01 02:45:47;;;;;;;24.73;16.63;;;;;;;9.35;65.77;98508.03;5096707;28;20506;-83
2023/04/01 02:48:13;;;;;;;28.60;17.85;;;;;;;9.21;65.42;98503.63;5099319;28;20478;-83
2023/04/01 02:50:40;;;;;;;25.17;16.92;;;;;;;9.30;65.45;98500.75;5096428;28;20024;-83
2023/04/01 02:53:06;;;;;;;27.15;17.80;;;;;;;9.24;66.23;98504.91;5096978;28;20028;-84
2023/04/01 02:55:32;;;;;;;25.48;15.93;;;;;;;9.23;64.68;98495.75;5096694;28;20478;-83
2023/04/01 02:57:58;;;;;;;25.73;17.65;;;;;;;9.37;64.83;98502.94;5096546;28;20085;-83
2023/04/01 03:00:25;;;;;;;28.20;16.05;;;;;;;9.38;64.67;98502.56;5097198;28;20072;-83
2023/04/01 03:02:50;;;;;;;28.70;16.10;;;;;;;9.43;64.73;98512.69;5114282;28;20024;-82
2023/04/01 03:05:16;;;;;;;27.35;15.02;;;;;;;9.51;64.54;98506.16;5095963;28;20517;-83
2023/04/01 03:07:41;;;;;;;28.73;16.42;;;;;;;9.24;64.79;98490.97;5096610;28;20035;-83
2023/04/01 03:10:07;;;;;;;25.42;15.95;;;;;;;8.92;64.23;98480.41;5096430;28;20023;-83
2023/04/01 03:12:33;;;;;;;22.33;16.05;;;;;;;8.94;65.39;98485.63;5096278;28;20030;-83
2023/04/01 03:14:58;;;;;;;18.23;14.27;;;;;;;9.04;65.40;98492.72;5096555;28;20024;-83
2023/04/01 03:17:24;;;;;;;27.95;16.35;;;;;;;8.74;66.19;98470.63;5096746;28;20080;-83
2023/04/01 03:19:49;;;;;;;23.02;15.52;;;;;;;8.66;66.91;98489.09;5096165;28;20115;-83
2023/04/01 03:22:15;;;;;;;17.92;13.45;;;;;;;8.64;67.36;98485.84;5095014;28;20027;-83
2023/04/01 03:24:40;;;;;;;31.85;14.80;;;;;;;8.41;67.75;98475.06;5096379;28;20054;-83
2023/04/01 03:27:06;;;;;;;23.17;15.75;;;;;;;8.26;68.55;98471.78;5096088;28;20115;-83
2023/04/01 03:29:31;;;;;;;27.80;14.77;;;;;;;8.19;69.05;98463.16;5114460;28;20051;-83
2023/04/01 03:31:58;;;;;;;25.27;14.75;;;;;;;8.28;68.64;98475.03;5096416;28;20076;-83
2023/04/01 03:34:25;;;;;;;22.45;15.05;;;;;;;8.21;69.03;98488.72;5114443;28;20016;-83
2023/04/01 03:36:51;;;;;;;17.50;13.55;;;;;;;8.11;67.82;98464.09;5097878;28;20030;-83
2023/04/01 03:39:18;;;;;;;17.55;13.30;;;;;;;8.37;66.88;98476.94;5105759;28;20019;-83
2023/04/01 03:41:45;;;;;;;20.02;13.32;;;;;;;8.33;67.17;98479.59;5095823;28;20047;-83
2023/04/01 03:44:11;;;;;;;21.50;13.68;;;;;;;8.26;68.44;98462.59;5096123;28;20123;-83
2023/04/01 03:46:37;;;;;;;21.45;14.10;;;;;;;7.95;69.32;98439.66;5096348;28;20508;-83
2023/04/01 03:49:11;;;;;;;28.80;13.73;;;;;;;8.00;68.13;98447.81;5094688;28;20020;-83
2023/04/01 03:51:40;;;;;;;23.35;14.32;;;;;;;8.04;68.33;98430.41;5113055;28;20034;-83
2023/04/01 03:54:06;;;;;;;21.90;13.00;;;;;;;8.14;69.58;98457.81;5094742;28;20115;-83
2023/04/01 03:56:32;;;;;;;17.70;12.02;;;;;;;8.05;68.49;98448.75;5095601;28;20117;-83
2023/04/01 03:58:58;;;;;;;20.00;12.77;;;;;;;8.12;67.83;98460.16;5095950;28;20482;-83
2023/04/01 04:01:23;;;;;;;25.13;13.15;;;;;;;8.27;67.76;98467.84;5114106;28;20100;-83
2023/04/01 04:03:50;;;;;;;20.15;12.35;;;;;;;8.45;67.12;98470.47;5095403;28;20081;-83
2023/04/01 04:06:17;;;;;;;22.58;11.85;;;;;;;8.45;68.55;98462.09;5097569;28;20481;-83
2023/04/01 04:08:44;;;;;;;17.55;11.98;;;;;;;8.44;67.30;98468.78;5097777;28;20028;-83
2023/04/01 04:11:09;;;;;;;23.08;13.18;;;;;;;8.41;67.26;98450.00;5113890;28;20024;-83
2023/04/01 04:13:35;;;;;;;39.58;12.85;;;;;;;8.43;67.37;98461.59;5095279;28;20406;-83
2023/04/01 04:16:02;;;;;;;24.33;13.30;;;;;;;8.52;67.74;98473.50;5095227;28;20027;-83
2023/04/01 04:18:27;;;;;;;17.42;12.73;;;;;;;8.76;67.09;98483.06;5095735;28;20028;-83
2023/04/01 04:20:53;;;;;;;25.08;13.55;;;;;;;8.91;65.74;98469.59;5095520;28;20084;-83
2023/04/01 04:23:19;;;;;;;31.08;16.98;;;;;;;8.76;67.21;98471.91;5100550;28;20092;-83
2023/04/01 04:26:06;;;;;;;40.08;25.52;;;;;;;8.79;66.76;98468.41;5112355;28;20055;-83
2023/04/01 04:28:33;;;;;;;61.92;30.35;;;;;;;9.07;66.04;98476.09;5099513;28;20034;-83
2023/04/01 04:30:58;;;;;;;80.00;44.25;;;;;;;8.83;66.00;98460.16;5095138;28;20016;-83
2023/04/01 04:33:24;;;;;;;65.03;37.95;;;;;;;8.81;67.92;98468.91;5094824;28;20020;-83
2023/04/01 04:35:51;;;;;;;85.75;43.08;;;;;;;8.86;66.35;98465.03;5091960;28;20023;-83
2023/04/01 04:38:17;;;;;;;74.65;42.13;;;;;;;8.96;66.63;98464.59;5091746;28;20027;-83
2023/04/01 04:40:43;;;;;;;72.18;42.28;;;;;;;9.07;65.89;98481.69;5090053;28;20043;-83
2023/04/01 04:43:14;;;;;;;67.47;39.63;;;;;;;8.80;67.32;98466.44;5091452;28;20066;-83
2023/04/01 04:45:40;;;;;;;63.78;36.05;;;;;;;9.06;66.90;98482.03;5091632;28;20114;-83
2023/04/01 04:48:08;;;;;;;55.85;21.17;;;;;;;9.04;66.23;98464.81;5092421;28;20490;-83
2023/04/01 04:50:33;;;;;;;31.02;16.17;;;;;;;9.16;65.86;98484.34;5092172;28;20080;-83
2023/04/01 04:52:59;;;;;;;29.30;15.32;;;;;;;9.24;65.94;98485.38;5091037;28;20020;-83
2023/04/01 04:55:24;;;;;;;41.53;14.43;;;;;;;9.01;67.09;98479.47;5091331;28;20032;-83
2023/04/01 04:57:50;;;;;;;25.70;17.83;;;;;;;9.25;66.64;98485.03;5090438;28;20066;-83
2023/04/01 05:00:16;;;;;;;27.98;17.20;;;;;;;9.18;66.68;98476.44;5090114;28;20505;-83
2023/04/01 05:02:41;;;;;;;67.30;40.17;;;;;;;9.23;67.40;98483.75;5090929;28;20028;-83
2023/04/01 05:05:07;;;;;;;76.00;34.88;;;;;;;9.13;67.39;98477.47;5087456;28;20024;-83
2023/04/01 05:07:33;;;;;;;51.88;23.40;;;;;;;8.99;67.55;98482.59;5090995;28;20062;-83
2023/04/01 05:09:59;;;;;;;48.88;24.33;;;;;;;9.17;67.60;98476.78;5092360;28;20016;-83
2023/04/01 05:12:25;;;;;;;53.50;28.10;;;;;;;9.09;66.98;98468.19;5091349;28;20028;-83
2023/04/01 05:14:50;;;;;;;44.35;22.50;;;;;;;9.06;68.21;98466.13;5090543;28;20115;-83
2023/04/01 05:17:16;;;;;;;40.03;16.75;;;;;;;8.94;68.22;98471.69;5090529;28;20398;-83
2023/04/01 05:19:41;;;;;;;21.50;14.65;;;;;;;9.02;67.99;98453.22;5090035;28;20077;-84
2023/04/01 05:22:07;;;;;;;26.27;14.10;;;;;;;9.07;68.13;98462.16;5090883;28;20464;-83
2023/04/01 05:24:33;;;;;;;33.15;17.75;;;;;;;8.98;68.31;98451.09;5090412;28;20024;-84
2023/04/01 05:26:59;;;;;;;22.88;14.55;;;;;;;8.85;68.57;98435.53;5107699;28;20528;-83
2023/04/01 05:29:26;;;;;;;16.98;13.18;;;;;;;9.09;68.69;98456.22;5090842;28;20060;-83
2023/04/01 05:31:52;;;;;;;43.00;16.02;;;;;;;9.21;68.18;98449.81;5091177;28;20034;-83
2023/04/01 05:34:18;;;;;;;41.92;20.95;;;;;;;8.97;69.13;98443.91;5088503;28;20494;-83
2023/04/01 05:36:44;;;;;;;28.85;18.52;;;;;;;9.02;68.48;98444.84;5090583;28;20032;-83
2023/04/01 05:39:09;;;;;;;31.92;18.48;;;;;;;8.97;69.20;98424.38;5090323;28;20475;-84
2023/04/01 05:41:35;;;;;;;27.38;17.48;;;;;;;9.03;68.95;98436.09;5090354;28;20054;-83
2023/04/01 05:44:01;;;;;;;48.08;23.52;;;;;;;9.09;69.24;98425.53;5090412;28;20059;-83
2023/04/01 05:46:27;;;;;;;41.42;19.23;;;;;;;9.15;69.40;98426.09;5090629;28;20027;-83
2023/04/01 05:48:52;;;;;;;34.17;17.30;;;;;;;9.07;69.27;98411.13;5090578;28;20482;-83
2023/04/01 05:51:18;;;;;;;33.38;16.67;;;;;;;9.04;69.49;98423.78;5089602;28;20031;-84
2023/04/01 05:53:44;;;;;;;23.30;14.55;;;;;;;9.18;69.01;98411.47;5090186;28;20024;-84
2023/04/01 05:56:09;;;;;;;22.35;14.30;;;;;;;9.50;67.83;98398.47;5084668;28;20510;-84
2023/04/01 05:58:39;;;;;;;46.58;31.60;;;;;;;9.47;68.84;98395.56;5067637;28;20051;-84
2023/04/01 06:01:10;;;;;;;34.80;21.27;;;;;;;9.49;67.83;98368.94;5077569;28;20047;-84
2023/04/01 06:03:36;;;;;;;33.97;19.88;;;;;;;9.41;68.58;98373.50;5086370;28;20536;-83
2023/04/01 06:06:04;;;;;;;34.88;20.35;;;;;;;9.62;68.20;98380.84;5084663;28;20024;-84
2023/04/01 06:08:31;;;;;;;25.35;15.77;;;;;;;9.58;68.10;98363.19;5087685;28;20027;-83
2023/04/01 06:10:59;;;;;;;29.73;18.13;;;;;;;9.54;69.09;98373.47;5085117;28;20119;-83
2023/04/01 06:13:40;;;;;;;32.38;15.27;;;;;;;9.56;69.24;98368.34;5087401;28;20040;-83
2023/04/01 06:16:50;;;;;;;28.73;16.70;;;;;;;9.55;70.00;98361.13;5078326;28;20043;-83
2023/04/01 06:19:45;;;;;;;26.48;16.90;;;;;;;9.59;69.43;98350.03;5090742;28;20505;-83
2023/04/01 06:22:19;;;;;;;26.40;17.25;;;;;;;9.29;70.72;98359.59;5059715;28;20032;-83
2023/04/01 06:24:57;;;;;;;34.15;20.77;;;;;;;9.17;72.50;98367.97;5084024;28;20138;-83
2023/04/01 06:27:41;;;;;;;31.85;19.50;;;;;;;9.21;72.75;98371.69;5088944;28;20491;-83
2023/04/01 06:30:12;;;;;;;35.42;22.88;;;;;;;9.30;72.04;98365.97;5088167;28;20032;-84
2023/04/01 06:32:59;;;;;;;28.85;18.58;;;;;;;9.23;72.89;98372.16;5091986;28;20036;-83
2023/04/01 06:35:42;;;;;;;32.67;17.90;;;;;;;9.27;73.08;98357.16;5091992;28;20510;-84
2023/04/01 06:38:50;;;;;;;41.65;19.38;;;;;;;9.31;72.37;98356.44;5089202;28;20019;-84
2023/04/01 06:41:58;;;;;;;33.20;19.85;;;;;;;9.46;71.49;98355.66;5038500;28;20085;-84
2023/04/01 06:44:33;;;;;;;26.95;19.15;;;;;;;9.61;71.41;98370.84;5065346;28;20016;-84
2023/04/01 06:47:18;;;;;;;29.20;19.63;;;;;;;9.66;72.21;98376.19;5066854;28;20107;-84
2023/04/01 06:50:07;;;;;;;30.27;18.20;;;;;;;9.76;71.14;98374.03;5071058;28;20514;-83
2023/04/01 06:52:46;;;;;;;46.20;24.55;;;;;;;9.92;71.38;98371.28;5070845;28;20039;-84
2023/04/01 06:55:32;;;;;;;36.83;22.13;;;;;;;10.03;71.03;98363.22;5083579;28;20051;-84
2023/04/01 06:58:00;;;;;;;43.42;23.38;;;;;;;10.06;72.16;98354.09;5069441;28;20036;-84
2023/04/01 07:00:33;;;;;;;39.17;23.33;;;;;;;9.96;71.69;98347.06;5073072;28;20419;-83
2023/04/01 07:03:32;;;;;;;33.70;23.60;;;;;;;10.08;71.69;98354.56;5071426;28;20129;-84
2023/04/01 07:06:03;;;;;;;41.53;23.80;;;;;;;10.07;71.30;98347.34;5067714;28;20085;-84
2023/04/01 07:08:31;;;;;;;33.05;21.98;;;;;;;10.14;72.95;98336.38;5071838;28;20138;-84
2023/04/01 07:11:22;;;;;;;31.38;19.60;;;;;;;10.22;71.13;98340.16;5072261;28;20039;-84
2023/04/01 07:13:53;;;;;;;35.00;22.30;;;;;;;10.30;69.75;98338.34;5072855;28;20532;-84
2023/04/01 07:16:29;;;;;;;;;;;;;;;10.33;70.10;98343.22;5072733;28;20052;-84
2023/04/01 07:19:01;;;;;;;27.52;18.83;;;;;;;10.37;70.85;98342.13;5071538;28;20072;-84
2023/04/01 07:21:35;;;;;;;29.02;18.30;;;;;;;10.38;70.24;98332.56;5072642;28;20483;-84
2023/04/01 07:24:06;;;;;;;26.25;17.50;;;;;;;10.60;69.74;98337.88;5072213;28;20415;-84
2023/04/01 07:26:31;;;;;;;30.85;18.27;;;;;;;10.72;69.39;98334.19;5067370;28;20032;-84
2023/04/01 07:28:57;;;;;;;24.88;16.23;;;;;;;10.80;69.77;98341.56;5069957;28;20043;-84
2023/04/01 07:31:25;;;;;;;31.25;16.67;;;;;;;10.84;68.84;98350.84;5061471;28;20131;-84
2023/04/01 07:33:57;;;;;;;25.70;16.80;;;;;;;10.84;68.86;98338.84;5066163;28;20023;-83
2023/04/01 07:36:28;;;;;;;28.90;16.10;;;;;;;10.88;69.08;98340.53;5072435;28;20503;-84
2023/04/01 07:39:05;;;;;;;23.85;15.60;;;;;;;10.90;70.50;98340.19;5064132;28;20115;-82
2023/04/01 07:42:05;;;;;;;27.05;15.45;;;;;;;11.15;69.14;98337.94;5081336;28;20048;-83
2023/04/01 07:44:59;;;;;;;30.60;14.05;;;;;;;11.19;69.02;98340.81;5049525;28;20063;-84
2023/04/01 07:47:43;;;;;;;24.67;15.27;;;;;;;11.38;68.16;98340.84;5090991;28;20039;-83
2023/04/01 07:50:19;;;;;;;27.25;15.30;;;;;;;11.44;67.18;98332.94;5087473;28;20107;-84
2023/04/01 07:53:08;;;;;;;25.52;13.45;;;;;;;11.49;67.18;98331.84;5079082;28;20030;-83
2023/04/01 07:56:06;;;;;;;23.98;15.40;;;;;;;11.59;67.17;98327.63;5091796;28;20042;-84
2023/04/01 07:58:39;;;;;;;38.03;17.63;;;;;;;11.53;67.09;98324.31;5088406;28;20506;-84
2023/04/01 08:01:23;;;;;;;28.48;16.95;;;;;;;11.57;67.39;98322.38;5090098;28;20123;-83
2023/04/01 08:04:21;;;;;;;27.83;16.90;;;;;;;11.54;67.55;98309.13;5089645;28;20107;-84
2023/04/01 08:06:50;;;;;;;26.92;17.55;;;;;;;11.49;67.75;98306.66;5086960;28;20046;-83
2023/04/01 08:09:42;;;;;;;26.52;16.90;;;;;;;11.51;68.27;98321.88;5092140;28;20034;-83
2023/04/01 08:12:38;;;;;;;29.02;16.55;;;;;;;11.43;67.99;98308.94;5089395;28;20160;-83
2023/04/01 08:15:14;;;;;;;25.15;15.55;;;;;;;11.54;68.21;98308.34;5080321;28;20020;-83
2023/04/01 08:18:12;;;;;;;27.55;14.43;;;;;;;11.50;68.23;98319.47;5089777;28;20177;-83
2023/04/01 08:21:00;;;;;;;30.00;18.35;;;;;;;11.69;67.55;98298.19;5077828;28;20105;-83
2023/04/01 08:23:27;;;;;;;25.42;15.75;;;;;;;11.65;68.43;98287.75;5088271;28;20423;-83
2023/04/01 08:26:10;;;;;;;37.78;16.08;;;;;;;11.82;67.82;98282.03;5090038;28;20031;-84
2023/04/01 08:28:44;;;;;;;67.15;30.13;;;;;;;12.09;66.98;98285.75;5083038;28;20127;-85
2023/04/01 08:31:39;;;;;;;298.92;130.13;;;;;;;12.40;66.29;98286.66;5092795;28;20028;-84
2023/04/01 08:34:15;;;;;;;44.80;25.13;;;;;;;12.55;65.49;98268.06;5085876;28;20028;-84
2023/04/01 08:36:53;;;;;;;24.63;14.07;;;;;;;12.70;65.03;98263.47;5103897;28;20115;-84
2023/04/01 08:39:30;;;;;;;24.80;14.02;;;;;;;12.73;64.92;98259.91;5086494;28;20392;-84
2023/04/01 08:42:33;;;;;;;32.30;14.13;;;;;;;12.72;65.69;98263.88;5090571;28;20507;-86
2023/04/01 08:45:17;;;;;;;32.60;12.98;;;;;;;12.81;64.79;98260.81;5089934;28;20028;-84
2023/04/01 08:48:10;;;;;;;19.10;12.38;;;;;;;12.82;64.66;98244.78;5091034;28;20062;-84
2023/04/01 08:50:54;;;;;;;22.35;12.15;;;;;;;12.89;64.79;98239.25;5087116;28;20479;-84
2023/04/01 08:53:41;;;;;;;19.13;12.50;;;;;;;12.99;64.46;98232.19;5088090;28;20039;-83
2023/04/01 08:56:28;;;;;;;28.13;12.98;;;;;;;12.89;65.04;98214.00;5089437;28;20028;-83
2023/04/01 08:59:18;;;;;;;19.23;10.70;;;;;;;12.77;65.07;98221.47;5090138;28;20028;-84
2023/04/01 09:01:53;;;;;;;15.10;9.88;;;;;;;12.70;64.90;98214.94;5080514;28;20114;-83
2023/04/01 09:04:49;;;;;;;20.40;10.73;;;;;;;12.58;65.12;98210.41;5090761;28;20165;-84
2023/04/01 09:07:29;;;;;;;16.38;9.88;;;;;;;12.76;64.50;98208.63;5089453;28;20035;-83
2023/04/01 09:10:13;;;;;;;22.42;10.20;;;;;;;12.71;64.94;98205.34;5087793;28;20097;-83
2023/04/01 09:12:57;;;;;;;22.67;11.13;;;;;;;12.75;65.04;98200.63;5084694;28;20027;-83
2023/04/01 09:15:41;;;;;;;21.08;9.98;;;;;;;12.68;64.92;98173.28;5075040;28;20033;-83
2023/04/01 09:18:24;;;;;;;16.65;9.80;;;;;;;12.84;65.71;98177.88;5090352;28;20107;-83
2023/04/01 09:21:16;;;;;;;16.83;10.10;;;;;;;12.87;65.62;98180.72;5088761;28;20486;-83
2023/04/01 09:24:02;;;;;;;18.92;9.75;;;;;;;13.01;65.26;98185.69;5077572;28;20514;-83
2023/04/01 09:26:28;;;;;;;15.32;10.90;;;;;;;13.31;63.40;98176.41;5088078;28;20084;-83
2023/04/01 09:29:34;;;;;;;17.00;9.50;;;;;;;13.24;63.73;98158.69;5090056;28;20032;-82
2023/04/01 09:32:41;;;;;;;14.65;8.55;;;;;;;13.62;62.56;98179.13;5076819;28;20513;-83
2023/04/01 09:35:25;;;;;;;19.20;9.88;;;;;;;13.81;62.67;98168.84;5085927;28;20065;-83
2023/04/01 09:38:19;;;;;;;19.70;9.23;;;;;;;13.84;63.43;98154.03;5086662;28;20029;-83
2023/04/01 09:40:53;;;;;;;10.75;8.18;;;;;;;14.13;61.61;98163.50;5084010;28;20052;-83
2023/04/01 09:43:47;;;;;;;16.60;8.38;;;;;;;14.40;60.61;98160.44;5093399;28;20019;-83
2023/04/01 09:46:24;;;;;;;31.27;10.88;;;;;;;14.59;58.95;98156.50;5092084;28;20426;-83
2023/04/01 09:49:15;;;;;;;23.98;12.43;;;;;;;14.71;59.48;98157.38;5093284;28;20030;-83
2023/04/01 09:51:54;;;;;;;17.88;9.05;;;;;;;14.74;59.14;98148.16;5115945;28;20039;-83
2023/04/01 09:54:23;;;;;;;13.00;8.80;;;;;;;14.92;58.73;98133.38;5093737;28;20395;-83
2023/04/01 09:57:25;;;;;;;16.58;9.52;;;;;;;14.99;59.49;98127.75;5092725;28;20031;-84
2023/04/01 10:00:29;;;;;;;21.90;9.10;;;;;;;15.19;57.90;98118.94;5090587;28;20031;-84
2023/04/01 10:03:17;;;;;;;15.25;7.93;;;;;;;15.17;57.98;98102.44;5083071;28;20126;-84
2023/04/01 10:06:13;;;;;;;14.63;8.75;;;;;;;14.85;58.75;98100.38;5093288;28;20027;-84
2023/04/01 10:08:57;;;;;;;19.17;9.05;;;;;;;14.75;58.92;98099.13;5093381;28;20020;-84
2023/04/01 10:11:45;;;;;;;14.05;8.13;;;;;;;14.48;58.51;98096.56;5108356;28;20164;-84
2023/04/01 10:14:23;;;;;;;16.08;8.55;;;;;;;14.38;58.97;98078.47;5091225;28;20072;-84
2023/04/01 10:17:24;;;;;;;18.52;10.02;;;;;;;14.52;60.25;98083.31;5101834;28;20055;-84
2023/04/01 10:19:49;;;;;;;21.55;10.82;;;;;;;14.60;59.46;98073.72;5080241;28;20416;-84
2023/04/01 10:22:27;;;;;;;14.45;8.85;;;;;;;14.65;59.04;98077.34;5092041;28;20028;-84
2023/04/01 10:25:14;;;;;;;18.23;8.73;;;;;;;14.64;59.13;98070.91;5077752;28;20483;-84
2023/04/01 10:27:55;;;;;;;20.45;10.63;;;;;;;14.56;59.60;98058.84;5073236;28;20510;-83
2023/04/01 10:30:42;;;;;;;20.45;10.52;;;;;;;14.56;59.99;98043.94;5079776;28;20024;-85
2023/04/01 10:33:20;;;;;;;19.67;8.77;;;;;;;14.57;59.21;98037.13;5085922;28;20034;-84
2023/04/01 10:36:06;;;;;;;18.85;8.32;;;;;;;14.67;59.10;98027.91;5086764;28;20036;-85
2023/04/01 10:38:51;;;;;;;16.40;8.13;;;;;;;14.69;59.28;98013.44;5109738;28;20102;-84
2023/04/01 10:41:51;;;;;;;22.27;10.63;;;;;;;14.85;58.57;98007.50;5093081;28;20052;-84
2023/04/01 10:44:44;;;;;;;19.52;9.27;;;;;;;14.95;57.95;97995.41;5092447;28;20051;-84
2023/04/01 10:47:34;;;;;;;11.95;7.55;;;;;;;14.94;57.88;98012.72;5092250;28;20022;-84
2023/04/01 10:50:42;;;;;;;19.33;11.32;;;;;;;15.05;57.55;98019.16;5093214;28;20406;-84
2023/04/01 10:53:39;;;;;;;21.88;10.82;;;;;;;15.02;56.70;98005.88;5089918;28;20429;-84
2023/04/01 10:56:23;;;;;;;14.05;8.70;;;;;;;14.98;57.18;97977.75;5057325;28;20355;-85
2023/04/01 10:59:25;;;;;;;15.82;10.15;;;;;;;15.01;57.60;97976.94;5088922;28;20037;-85
2023/04/01 11:02:16;;;;;;;15.73;9.90;;;;;;;15.14;56.85;97982.16;5096651;28;20023;-85
2023/04/01 11:05:18;;;;;;;13.63;9.77;;;;;;;15.40;56.43;97978.13;5093155;28;20068;-86
2023/04/01 11:08:14;;;;;;;15.98;10.98;;;;;;;15.60;55.62;97986.13;5089983;28;20020;-85
2023/04/01 11:10:58;;;;;;;13.82;8.55;;;;;;;15.39;56.22;97970.88;5109243;28;20138;-85
2023/04/01 11:13:24;;;;;;;17.63;8.98;;;;;;;15.54;55.11;97974.47;5076422;28;20076;-85
2023/04/01 11:16:22;;;;;;;10.85;8.00;;;;;;;15.31;55.85;97972.09;5081171;28;20024;-84
2023/04/01 11:19:02;;;;;;;16.65;9.18;;;;;;;15.32;55.72;97972.88;5060006;28;20815;-85
2023/04/01 11:21:34;;;;;;;12.60;9.18;;;;;;;15.37;55.85;97978.13;5094724;28;20096;-84
2023/04/01 11:24:29;;;;;;;22.38;11.55;;;;;;;15.46;55.75;97975.72;5113672;28;20031;-85
2023/04/01 11:27:23;;;;;;;25.98;11.05;;;;;;;15.22;57.73;97949.97;5084885;28;20084;-85
2023/04/01 11:30:00;;;;;;;17.85;10.38;;;;;;;15.44;56.84;97950.75;5099957;28;20051;-85
2023/04/01 11:32:39;;;;;;;90.13;48.08;;;;;;;15.58;56.62;97933.00;5089121;28;20457;-84
2023/04/01 11:35:16;;;;;;;141.10;78.85;;;;;;;15.64;55.88;97938.22;5097360;28;20467;-84
2023/04/01 11:38:12;;;;;;;28.25;13.15;;;;;;;15.55;55.60;97930.19;5093401;28;20483;-84
2023/04/01 11:40:56;;;;;;;47.25;24.67;;;;;;;15.56;55.56;97946.69;5063409;28;20047;-85
2023/04/01 11:43:37;;;;;;;35.33;13.68;;;;;;;15.75;55.65;97939.00;5094326;28;20030;-84
2023/04/01 11:46:11;;;;;;;16.67;10.70;;;;;;;15.83;54.89;97931.31;5091854;28;20023;-85
2023/04/01 11:48:54;;;;;;;27.80;14.70;;;;;;;15.94;54.85;97939.78;5092776;28;20031;-86
2023/04/01 11:51:40;;;;;;;23.30;10.50;;;;;;;15.87;55.57;97934.94;5088314;28;20024;-85
2023/04/01 11:54:37;;;;;;;28.48;11.98;;;;;;;15.97;55.32;97925.66;5091458;28;20027;-85
2023/04/01 11:57:22;;;;;;;31.10;12.40;;;;;;;16.03;55.43;97911.94;5089286;28;20168;-85
2023/04/01 11:59:51;;;;;;;22.77;12.50;;;;;;;16.12;54.87;97914.31;5108766;28;20071;-85
2023/04/01 12:02:16;;;;;;;17.48;10.82;;;;;;;16.12;55.03;97917.16;5095617;28;20549;-85